sensor_id;sensor_type;location;lat;lon;timestamp;P1;durP1;ratioP1;P2;durP2;ratioP2
21084;SDS011;34247;50.064;19.970;2022-07-12T00:00:07;1.55;;;1.17;;
21084;SDS011;34247;50.064;19.970;2022-07-12T00:01:12;2.67;;;1.65;;
21084;SDS011;34247;50.064;19.970;2022-07-12T00:02:16;4.30;;;1.25;;
21084;SDS011;34247;50.064;19.970;2022-07-12T00:03:20;3.00;;;1.38;;
21084;SDS011;34247;50.064;19.970;2022-07-12T00:04:24;2.45;;;1.58;;
21084;SDS011;34247;50.064;19.970;2022-07-12T00:05:28;1.10;;;0.93;;
21084;SDS011;34247;50.064;19.970;2022-07-12T00:06:32;1.30;;;1.20;;
21084;SDS011;34247;50.064;19.970;2022-07-12T00:07:36;2.17;;;1.52;;
21084;SDS011;34247;50.064;19.970;2022-07-12T00:08:40;2.53;;;1.27;;
21084;SDS011;34247;50.064;19.970;2022-07-12T00:09:43;3.60;;;1.08;;
21084;SDS011;34247;50.064;19.970;2022-07-12T00:10:47;3.60;;;1.33;;
21084;SDS011;34247;50.064;19.970;2022-07-12T00:11:51;2.67;;;1.10;;
21084;SDS011;34247;50.064;19.970;2022-07-12T00:12:55;1.58;;;1.33;;
21084;SDS011;34247;50.064;19.970;2022-07-12T00:14:00;2.28;;;0.80;;
21084;SDS011;34247;50.064;19.970;2022-07-12T00:15:04;3.00;;;1.55;;
21084;SDS011;34247;50.064;19.970;2022-07-12T00:16:09;4.40;;;1.80;;
21084;SDS011;34247;50.064;19.970;2022-07-12T00:17:13;2.20;;;1.40;;
21084;SDS011;34247;50.064;19.970;2022-07-12T00:18:16;1.60;;;1.42;;
21084;SDS011;34247;50.064;19.970;2022-07-12T00:19:20;5.07;;;1.83;;
21084;SDS011;34247;50.064;19.970;2022-07-12T00:20:24;1.35;;;1.25;;
21084;SDS011;34247;50.064;19.970;2022-07-12T00:21:29;2.15;;;1.42;;
21084;SDS011;34247;50.064;19.970;2022-07-12T00:22:33;1.52;;;1.10;;
21084;SDS011;34247;50.064;19.970;2022-07-12T00:23:37;2.78;;;1.73;;
21084;SDS011;34247;50.064;19.970;2022-07-12T00:24:41;3.35;;;1.90;;
21084;SDS011;34247;50.064;19.970;2022-07-12T00:25:45;1.63;;;1.15;;
21084;SDS011;34247;50.064;19.970;2022-07-12T00:26:50;3.22;;;1.80;;
21084;SDS011;34247;50.064;19.970;2022-07-12T00:27:55;2.65;;;1.40;;
21084;SDS011;34247;50.064;19.970;2022-07-12T00:29:00;1.73;;;1.60;;
21084;SDS011;34247;50.064;19.970;2022-07-12T00:30:05;2.45;;;1.95;;
21084;SDS011;34247;50.064;19.970;2022-07-12T00:31:11;2.03;;;1.55;;
21084;SDS011;34247;50.064;19.970;2022-07-12T00:32:16;1.45;;;1.27;;
21084;SDS011;34247;50.064;19.970;2022-07-12T00:33:20;2.70;;;1.33;;
21084;SDS011;34247;50.064;19.970;2022-07-12T00:34:24;3.55;;;1.13;;
21084;SDS011;34247;50.064;19.970;2022-07-12T00:35:28;4.00;;;1.58;;
21084;SDS011;34247;50.064;19.970;2022-07-12T00:36:32;3.90;;;1.67;;
21084;SDS011;34247;50.064;19.970;2022-07-12T00:37:36;3.33;;;1.20;;
21084;SDS011;34247;50.064;19.970;2022-07-12T00:38:41;2.03;;;1.50;;
21084;SDS011;34247;50.064;19.970;2022-07-12T00:39:45;1.30;;;1.20;;
21084;SDS011;34247;50.064;19.970;2022-07-12T00:40:49;2.42;;;1.70;;
21084;SDS011;34247;50.064;19.970;2022-07-12T00:41:53;6.05;;;1.60;;
21084;SDS011;34247;50.064;19.970;2022-07-12T00:42:57;1.30;;;1.20;;
21084;SDS011;34247;50.064;19.970;2022-07-12T00:44:01;1.88;;;1.55;;
21084;SDS011;34247;50.064;19.970;2022-07-12T00:45:05;1.45;;;1.35;;
21084;SDS011;34247;50.064;19.970;2022-07-12T00:46:11;1.70;;;1.42;;
21084;SDS011;34247;50.064;19.970;2022-07-12T00:48:43;2.15;;;1.23;;
21084;SDS011;34247;50.064;19.970;2022-07-12T00:49:47;2.70;;;1.50;;
21084;SDS011;34247;50.064;19.970;2022-07-12T00:50:51;3.08;;;1.48;;
21084;SDS011;34247;50.064;19.970;2022-07-12T00:51:55;1.38;;;1.10;;
21084;SDS011;34247;50.064;19.970;2022-07-12T00:53:00;3.00;;;1.83;;
21084;SDS011;34247;50.064;19.970;2022-07-12T00:54:05;1.27;;;1.17;;
21084;SDS011;34247;50.064;19.970;2022-07-12T00:55:09;4.20;;;1.73;;
21084;SDS011;34247;50.064;19.970;2022-07-12T00:56:15;1.50;;;1.33;;
21084;SDS011;34247;50.064;19.970;2022-07-12T00:57:18;1.63;;;1.42;;
21084;SDS011;34247;50.064;19.970;2022-07-12T00:58:23;5.60;;;1.65;;
21084;SDS011;34247;50.064;19.970;2022-07-12T00:59:29;3.45;;;2.28;;
21084;SDS011;34247;50.064;19.970;2022-07-12T01:00:33;3.05;;;1.55;;
21084;SDS011;34247;50.064;19.970;2022-07-12T01:01:37;1.20;;;1.10;;
21084;SDS011;34247;50.064;19.970;2022-07-12T01:02:42;1.77;;;1.27;;
21084;SDS011;34247;50.064;19.970;2022-07-12T01:03:48;1.63;;;1.27;;
21084;SDS011;34247;50.064;19.970;2022-07-12T01:04:53;1.42;;;1.20;;
21084;SDS011;34247;50.064;19.970;2022-07-12T01:06:00;3.55;;;2.17;;
21084;SDS011;34247;50.064;19.970;2022-07-12T01:07:05;3.15;;;1.40;;
21084;SDS011;34247;50.064;19.970;2022-07-12T01:08:08;3.95;;;1.40;;
21084;SDS011;34247;50.064;19.970;2022-07-12T01:09:16;1.92;;;1.25;;
21084;SDS011;34247;50.064;19.970;2022-07-12T01:10:20;3.03;;;1.80;;
21084;SDS011;34247;50.064;19.970;2022-07-12T01:11:24;1.90;;;1.48;;
21084;SDS011;34247;50.064;19.970;2022-07-12T01:12:29;1.60;;;1.50;;
21084;SDS011;34247;50.064;19.970;2022-07-12T01:13:34;1.63;;;1.52;;
21084;SDS011;34247;50.064;19.970;2022-07-12T01:14:40;2.00;;;1.50;;
21084;SDS011;34247;50.064;19.970;2022-07-12T01:15:44;4.97;;;1.65;;
21084;SDS011;34247;50.064;19.970;2022-07-12T01:16:51;3.05;;;1.60;;
21084;SDS011;34247;50.064;19.970;2022-07-12T01:17:55;2.45;;;1.63;;
21084;SDS011;34247;50.064;19.970;2022-07-12T01:19:01;2.67;;;1.67;;
21084;SDS011;34247;50.064;19.970;2022-07-12T01:20:07;3.88;;;1.80;;
21084;SDS011;34247;50.064;19.970;2022-07-12T01:21:16;3.75;;;1.70;;
21084;SDS011;34247;50.064;19.970;2022-07-12T01:22:25;1.73;;;1.60;;
21084;SDS011;34247;50.064;19.970;2022-07-12T01:23:37;2.97;;;1.88;;
21084;SDS011;34247;50.064;19.970;2022-07-12T01:24:46;3.03;;;1.48;;
21084;SDS011;34247;50.064;19.970;2022-07-12T01:25:50;3.97;;;1.52;;
21084;SDS011;34247;50.064;19.970;2022-07-12T01:26:54;2.13;;;1.60;;
21084;SDS011;34247;50.064;19.970;2022-07-12T01:27:58;3.97;;;1.88;;
21084;SDS011;34247;50.064;19.970;2022-07-12T01:29:02;1.42;;;1.08;;
21084;SDS011;34247;50.064;19.970;2022-07-12T01:30:09;1.92;;;1.50;;
21084;SDS011;34247;50.064;19.970;2022-07-12T01:31:13;2.97;;;2.30;;
21084;SDS011;34247;50.064;19.970;2022-07-12T01:32:17;1.48;;;1.35;;
21084;SDS011;34247;50.064;19.970;2022-07-12T01:33:28;4.15;;;1.80;;
21084;SDS011;34247;50.064;19.970;2022-07-12T01:34:33;1.95;;;1.30;;
21084;SDS011;34247;50.064;19.970;2022-07-12T01:35:38;4.82;;;1.83;;
21084;SDS011;34247;50.064;19.970;2022-07-12T01:36:44;1.58;;;1.48;;
21084;SDS011;34247;50.064;19.970;2022-07-12T01:37:49;5.10;;;2.03;;
21084;SDS011;34247;50.064;19.970;2022-07-12T01:38:53;1.55;;;1.30;;
21084;SDS011;34247;50.064;19.970;2022-07-12T01:39:58;1.88;;;1.73;;
21084;SDS011;34247;50.064;19.970;2022-07-12T01:41:02;2.50;;;2.05;;
21084;SDS011;34247;50.064;19.970;2022-07-12T01:42:08;4.20;;;1.55;;
21084;SDS011;34247;50.064;19.970;2022-07-12T01:43:12;2.45;;;1.42;;
21084;SDS011;34247;50.064;19.970;2022-07-12T01:44:16;3.88;;;1.85;;
21084;SDS011;34247;50.064;19.970;2022-07-12T01:45:20;3.10;;;1.95;;
21084;SDS011;34247;50.064;19.970;2022-07-12T01:46:24;6.25;;;1.50;;
21084;SDS011;34247;50.064;19.970;2022-07-12T01:47:29;3.50;;;1.77;;
21084;SDS011;34247;50.064;19.970;2022-07-12T01:48:34;3.80;;;2.13;;
21084;SDS011;34247;50.064;19.970;2022-07-12T01:49:38;2.25;;;1.73;;
21084;SDS011;34247;50.064;19.970;2022-07-12T01:50:42;5.32;;;2.00;;
21084;SDS011;34247;50.064;19.970;2022-07-12T01:51:46;1.90;;;1.75;;
21084;SDS011;34247;50.064;19.970;2022-07-12T01:52:49;1.63;;;1.25;;
21084;SDS011;34247;50.064;19.970;2022-07-12T01:53:55;3.53;;;1.58;;
21084;SDS011;34247;50.064;19.970;2022-07-12T01:54:59;2.38;;;1.42;;
21084;SDS011;34247;50.064;19.970;2022-07-12T01:56:04;4.65;;;1.75;;
21084;SDS011;34247;50.064;19.970;2022-07-12T01:57:08;2.05;;;1.50;;
21084;SDS011;34247;50.064;19.970;2022-07-12T01:58:12;6.53;;;1.75;;
21084;SDS011;34247;50.064;19.970;2022-07-12T01:59:18;3.92;;;2.00;;
21084;SDS011;34247;50.064;19.970;2022-07-12T02:00:23;5.05;;;2.03;;
21084;SDS011;34247;50.064;19.970;2022-07-12T02:01:28;1.38;;;1.20;;
21084;SDS011;34247;50.064;19.970;2022-07-12T02:02:33;2.60;;;1.63;;
21084;SDS011;34247;50.064;19.970;2022-07-12T02:03:37;3.53;;;2.33;;
21084;SDS011;34247;50.064;19.970;2022-07-12T02:04:41;2.17;;;1.80;;
21084;SDS011;34247;50.064;19.970;2022-07-12T02:05:45;3.08;;;2.50;;
21084;SDS011;34247;50.064;19.970;2022-07-12T02:06:50;4.85;;;1.77;;
21084;SDS011;34247;50.064;19.970;2022-07-12T02:07:54;4.82;;;1.50;;
21084;SDS011;34247;50.064;19.970;2022-07-12T02:08:58;2.85;;;1.70;;
21084;SDS011;34247;50.064;19.970;2022-07-12T02:10:02;3.65;;;1.60;;
21084;SDS011;34247;50.064;19.970;2022-07-12T02:11:09;2.13;;;1.75;;
21084;SDS011;34247;50.064;19.970;2022-07-12T02:12:13;2.35;;;1.73;;
21084;SDS011;34247;50.064;19.970;2022-07-12T02:13:17;4.40;;;2.60;;
21084;SDS011;34247;50.064;19.970;2022-07-12T02:14:21;1.88;;;1.67;;
21084;SDS011;34247;50.064;19.970;2022-07-12T02:15:25;4.05;;;2.03;;
21084;SDS011;34247;50.064;19.970;2022-07-12T02:16:30;2.22;;;1.67;;
21084;SDS011;34247;50.064;19.970;2022-07-12T02:17:34;4.20;;;2.25;;
21084;SDS011;34247;50.064;19.970;2022-07-12T02:18:39;4.40;;;1.98;;
21084;SDS011;34247;50.064;19.970;2022-07-12T02:19:43;6.45;;;2.28;;
21084;SDS011;34247;50.064;19.970;2022-07-12T02:20:47;2.63;;;2.20;;
21084;SDS011;34247;50.064;19.970;2022-07-12T02:21:51;5.90;;;2.15;;
21084;SDS011;34247;50.064;19.970;2022-07-12T02:22:55;2.17;;;1.67;;
21084;SDS011;34247;50.064;19.970;2022-07-12T02:23:59;3.45;;;1.77;;
21084;SDS011;34247;50.064;19.970;2022-07-12T02:25:04;1.73;;;1.63;;
21084;SDS011;34247;50.064;19.970;2022-07-12T02:26:08;3.60;;;2.35;;
21084;SDS011;34247;50.064;19.970;2022-07-12T02:27:12;5.32;;;1.85;;
21084;SDS011;34247;50.064;19.970;2022-07-12T02:28:16;6.25;;;1.90;;
21084;SDS011;34247;50.064;19.970;2022-07-12T02:29:20;2.08;;;1.85;;
21084;SDS011;34247;50.064;19.970;2022-07-12T02:30:24;2.78;;;1.88;;
21084;SDS011;34247;50.064;19.970;2022-07-12T02:31:28;2.10;;;1.80;;
21084;SDS011;34247;50.064;19.970;2022-07-12T02:32:33;2.15;;;1.95;;
21084;SDS011;34247;50.064;19.970;2022-07-12T02:33:37;3.03;;;1.67;;
21084;SDS011;34247;50.064;19.970;2022-07-12T02:34:41;3.42;;;1.65;;
21084;SDS011;34247;50.064;19.970;2022-07-12T02:35:45;3.67;;;1.60;;
21084;SDS011;34247;50.064;19.970;2022-07-12T02:36:49;4.47;;;1.80;;
21084;SDS011;34247;50.064;19.970;2022-07-12T02:37:53;3.13;;;1.83;;
21084;SDS011;34247;50.064;19.970;2022-07-12T02:38:58;2.47;;;1.70;;
21084;SDS011;34247;50.064;19.970;2022-07-12T02:40:05;3.08;;;1.70;;
21084;SDS011;34247;50.064;19.970;2022-07-12T02:41:30;2.22;;;1.60;;
21084;SDS011;34247;50.064;19.970;2022-07-12T02:42:34;4.72;;;2.28;;
21084;SDS011;34247;50.064;19.970;2022-07-12T02:43:38;3.35;;;2.10;;
21084;SDS011;34247;50.064;19.970;2022-07-12T02:44:42;2.17;;;1.75;;
21084;SDS011;34247;50.064;19.970;2022-07-12T02:45:46;3.15;;;1.90;;
21084;SDS011;34247;50.064;19.970;2022-07-12T02:46:49;2.35;;;2.05;;
21084;SDS011;34247;50.064;19.970;2022-07-12T02:47:53;3.58;;;2.03;;
21084;SDS011;34247;50.064;19.970;2022-07-12T02:48:57;2.47;;;1.60;;
21084;SDS011;34247;50.064;19.970;2022-07-12T02:50:01;2.88;;;2.17;;
21084;SDS011;34247;50.064;19.970;2022-07-12T02:51:06;4.30;;;2.20;;
21084;SDS011;34247;50.064;19.970;2022-07-12T02:52:11;2.42;;;2.17;;
21084;SDS011;34247;50.064;19.970;2022-07-12T02:53:15;2.03;;;1.75;;
21084;SDS011;34247;50.064;19.970;2022-07-12T02:54:19;2.25;;;1.88;;
21084;SDS011;34247;50.064;19.970;2022-07-12T02:55:23;5.03;;;2.63;;
21084;SDS011;34247;50.064;19.970;2022-07-12T02:56:27;3.20;;;2.15;;
21084;SDS011;34247;50.064;19.970;2022-07-12T02:57:30;4.22;;;2.67;;
21084;SDS011;34247;50.064;19.970;2022-07-12T02:58:34;2.72;;;2.40;;
21084;SDS011;34247;50.064;19.970;2022-07-12T02:59:39;3.17;;;2.10;;
21084;SDS011;34247;50.064;19.970;2022-07-12T03:00:43;2.88;;;2.03;;
21084;SDS011;34247;50.064;19.970;2022-07-12T03:01:50;3.20;;;1.70;;
21084;SDS011;34247;50.064;19.970;2022-07-12T03:02:54;10.05;;;2.20;;
21084;SDS011;34247;50.064;19.970;2022-07-12T03:03:58;2.78;;;2.00;;
21084;SDS011;34247;50.064;19.970;2022-07-12T03:05:02;2.05;;;1.90;;
21084;SDS011;34247;50.064;19.970;2022-07-12T03:06:07;5.75;;;1.80;;
21084;SDS011;34247;50.064;19.970;2022-07-12T03:07:11;2.33;;;2.10;;
21084;SDS011;34247;50.064;19.970;2022-07-12T03:08:15;3.35;;;1.98;;
21084;SDS011;34247;50.064;19.970;2022-07-12T03:09:19;5.70;;;2.60;;
21084;SDS011;34247;50.064;19.970;2022-07-12T03:10:23;4.90;;;2.90;;
21084;SDS011;34247;50.064;19.970;2022-07-12T03:11:27;7.53;;;3.75;;
21084;SDS011;34247;50.064;19.970;2022-07-12T03:12:31;6.28;;;3.35;;
21084;SDS011;34247;50.064;19.970;2022-07-12T03:13:34;7.57;;;3.75;;
21084;SDS011;34247;50.064;19.970;2022-07-12T03:14:38;4.57;;;2.90;;
21084;SDS011;34247;50.064;19.970;2022-07-12T03:15:42;3.35;;;2.80;;
21084;SDS011;34247;50.064;19.970;2022-07-12T03:16:49;3.42;;;2.67;;
21084;SDS011;34247;50.064;19.970;2022-07-12T03:17:54;3.30;;;2.38;;
21084;SDS011;34247;50.064;19.970;2022-07-12T03:18:58;3.20;;;2.20;;
21084;SDS011;34247;50.064;19.970;2022-07-12T03:20:03;3.40;;;2.40;;
21084;SDS011;34247;50.064;19.970;2022-07-12T03:21:14;2.58;;;2.35;;
21084;SDS011;34247;50.064;19.970;2022-07-12T03:22:19;7.55;;;3.70;;
21084;SDS011;34247;50.064;19.970;2022-07-12T03:23:23;3.90;;;2.58;;
21084;SDS011;34247;50.064;19.970;2022-07-12T03:24:27;3.97;;;2.63;;
21084;SDS011;34247;50.064;19.970;2022-07-12T03:25:31;3.25;;;2.30;;
21084;SDS011;34247;50.064;19.970;2022-07-12T03:26:35;6.28;;;2.53;;
21084;SDS011;34247;50.064;19.970;2022-07-12T03:27:39;5.43;;;2.95;;
21084;SDS011;34247;50.064;19.970;2022-07-12T03:28:45;4.82;;;2.85;;
21084;SDS011;34247;50.064;19.970;2022-07-12T03:29:49;5.38;;;2.67;;
21084;SDS011;34247;50.064;19.970;2022-07-12T03:30:54;3.65;;;2.75;;
21084;SDS011;34247;50.064;19.970;2022-07-12T03:31:59;6.57;;;2.85;;
21084;SDS011;34247;50.064;19.970;2022-07-12T03:33:03;2.92;;;2.63;;
21084;SDS011;34247;50.064;19.970;2022-07-12T03:34:07;4.35;;;2.95;;
21084;SDS011;34247;50.064;19.970;2022-07-12T03:35:11;5.13;;;2.47;;
21084;SDS011;34247;50.064;19.970;2022-07-12T03:36:15;5.78;;;2.35;;
21084;SDS011;34247;50.064;19.970;2022-07-12T03:37:19;2.85;;;2.55;;
21084;SDS011;34247;50.064;19.970;2022-07-12T03:38:23;5.35;;;2.53;;
21084;SDS011;34247;50.064;19.970;2022-07-12T03:39:28;7.65;;;2.40;;
21084;SDS011;34247;50.064;19.970;2022-07-12T03:40:37;3.15;;;2.45;;
21084;SDS011;34247;50.064;19.970;2022-07-12T03:41:41;5.50;;;3.25;;
21084;SDS011;34247;50.064;19.970;2022-07-12T03:42:45;4.57;;;2.78;;
21084;SDS011;34247;50.064;19.970;2022-07-12T03:43:51;5.80;;;2.97;;
21084;SDS011;34247;50.064;19.970;2022-07-12T03:44:55;8.13;;;3.17;;
21084;SDS011;34247;50.064;19.970;2022-07-12T03:45:59;5.50;;;3.20;;
21084;SDS011;34247;50.064;19.970;2022-07-12T03:47:03;2.92;;;2.30;;
21084;SDS011;34247;50.064;19.970;2022-07-12T03:48:07;4.70;;;2.72;;
21084;SDS011;34247;50.064;19.970;2022-07-12T03:49:11;4.53;;;3.35;;
21084;SDS011;34247;50.064;19.970;2022-07-12T03:50:14;11.60;;;3.22;;
21084;SDS011;34247;50.064;19.970;2022-07-12T03:51:19;9.13;;;2.75;;
21084;SDS011;34247;50.064;19.970;2022-07-12T03:52:22;2.60;;;2.17;;
21084;SDS011;34247;50.064;19.970;2022-07-12T03:53:26;2.97;;;2.40;;
21084;SDS011;34247;50.064;19.970;2022-07-12T03:54:30;3.75;;;2.58;;
21084;SDS011;34247;50.064;19.970;2022-07-12T03:55:34;3.58;;;2.80;;
21084;SDS011;34247;50.064;19.970;2022-07-12T03:56:38;3.65;;;2.50;;
21084;SDS011;34247;50.064;19.970;2022-07-12T03:58:00;5.38;;;2.65;;
21084;SDS011;34247;50.064;19.970;2022-07-12T03:59:04;5.72;;;2.75;;
21084;SDS011;34247;50.064;19.970;2022-07-12T04:00:09;3.75;;;2.63;;
21084;SDS011;34247;50.064;19.970;2022-07-12T04:01:15;6.95;;;3.05;;
21084;SDS011;34247;50.064;19.970;2022-07-12T04:02:19;3.05;;;2.60;;
21084;SDS011;34247;50.064;19.970;2022-07-12T04:03:23;6.43;;;2.90;;
21084;SDS011;34247;50.064;19.970;2022-07-12T04:04:27;2.63;;;2.00;;
21084;SDS011;34247;50.064;19.970;2022-07-12T04:05:31;2.58;;;2.20;;
21084;SDS011;34247;50.064;19.970;2022-07-12T04:06:35;3.22;;;2.30;;
21084;SDS011;34247;50.064;19.970;2022-07-12T04:07:39;7.35;;;2.65;;
21084;SDS011;34247;50.064;19.970;2022-07-12T04:08:43;4.78;;;2.40;;
21084;SDS011;34247;50.064;19.970;2022-07-12T04:09:47;5.97;;;2.70;;
21084;SDS011;34247;50.064;19.970;2022-07-12T04:10:51;7.25;;;2.55;;
21084;SDS011;34247;50.064;19.970;2022-07-12T04:11:55;4.35;;;2.60;;
21084;SDS011;34247;50.064;19.970;2022-07-12T04:12:59;3.47;;;2.60;;
21084;SDS011;34247;50.064;19.970;2022-07-12T04:14:02;3.65;;;2.30;;
21084;SDS011;34247;50.064;19.970;2022-07-12T04:15:07;2.80;;;2.40;;
21084;SDS011;34247;50.064;19.970;2022-07-12T04:16:11;3.05;;;2.53;;
21084;SDS011;34247;50.064;19.970;2022-07-12T04:17:15;4.60;;;2.30;;
21084;SDS011;34247;50.064;19.970;2022-07-12T04:18:19;3.83;;;2.70;;
21084;SDS011;34247;50.064;19.970;2022-07-12T04:19:31;6.25;;;2.33;;
21084;SDS011;34247;50.064;19.970;2022-07-12T04:20:36;3.92;;;2.20;;
21084;SDS011;34247;50.064;19.970;2022-07-12T04:21:42;3.17;;;2.15;;
21084;SDS011;34247;50.064;19.970;2022-07-12T04:22:46;3.60;;;2.60;;
21084;SDS011;34247;50.064;19.970;2022-07-12T04:23:50;8.88;;;2.78;;
21084;SDS011;34247;50.064;19.970;2022-07-12T04:24:54;4.47;;;2.08;;
21084;SDS011;34247;50.064;19.970;2022-07-12T04:25:58;3.10;;;2.60;;
21084;SDS011;34247;50.064;19.970;2022-07-12T04:27:02;2.65;;;1.83;;
21084;SDS011;34247;50.064;19.970;2022-07-12T04:28:06;4.72;;;2.55;;
21084;SDS011;34247;50.064;19.970;2022-07-12T04:29:10;5.07;;;2.00;;
21084;SDS011;34247;50.064;19.970;2022-07-12T04:30:14;2.20;;;1.77;;
21084;SDS011;34247;50.064;19.970;2022-07-12T04:31:18;3.38;;;2.30;;
21084;SDS011;34247;50.064;19.970;2022-07-12T04:32:22;6.85;;;2.08;;
21084;SDS011;34247;50.064;19.970;2022-07-12T04:33:26;3.00;;;2.10;;
21084;SDS011;34247;50.064;19.970;2022-07-12T04:34:30;2.92;;;1.65;;
21084;SDS011;34247;50.064;19.970;2022-07-12T04:35:34;2.30;;;1.70;;
21084;SDS011;34247;50.064;19.970;2022-07-12T04:36:38;2.13;;;1.92;;
21084;SDS011;34247;50.064;19.970;2022-07-12T04:37:42;3.08;;;1.60;;
21084;SDS011;34247;50.064;19.970;2022-07-12T04:38:45;2.00;;;1.90;;
21084;SDS011;34247;50.064;19.970;2022-07-12T04:39:49;1.70;;;1.60;;
21084;SDS011;34247;50.064;19.970;2022-07-12T04:40:54;2.70;;;1.90;;
21084;SDS011;34247;50.064;19.970;2022-07-12T04:41:57;3.50;;;1.40;;
21084;SDS011;34247;50.064;19.970;2022-07-12T04:43:01;2.00;;;1.83;;
21084;SDS011;34247;50.064;19.970;2022-07-12T04:44:06;2.95;;;1.67;;
21084;SDS011;34247;50.064;19.970;2022-07-12T04:45:10;2.25;;;1.45;;
21084;SDS011;34247;50.064;19.970;2022-07-12T04:46:14;2.25;;;1.10;;
21084;SDS011;34247;50.064;19.970;2022-07-12T04:47:17;1.80;;;1.70;;
21084;SDS011;34247;50.064;19.970;2022-07-12T04:48:21;1.73;;;1.60;;
21084;SDS011;34247;50.064;19.970;2022-07-12T04:49:25;1.60;;;1.35;;
21084;SDS011;34247;50.064;19.970;2022-07-12T04:50:29;2.38;;;1.65;;
21084;SDS011;34247;50.064;19.970;2022-07-12T04:51:33;2.75;;;1.40;;
21084;SDS011;34247;50.064;19.970;2022-07-12T04:52:36;1.90;;;1.40;;
21084;SDS011;34247;50.064;19.970;2022-07-12T04:53:41;1.83;;;1.48;;
21084;SDS011;34247;50.064;19.970;2022-07-12T04:54:44;2.22;;;1.50;;
21084;SDS011;34247;50.064;19.970;2022-07-12T04:55:50;5.53;;;2.38;;
21084;SDS011;34247;50.064;19.970;2022-07-12T04:56:53;4.10;;;1.75;;
21084;SDS011;34247;50.064;19.970;2022-07-12T04:57:57;1.60;;;1.30;;
21084;SDS011;34247;50.064;19.970;2022-07-12T04:59:01;1.75;;;1.65;;
21084;SDS011;34247;50.064;19.970;2022-07-12T05:00:06;3.55;;;1.63;;
21084;SDS011;34247;50.064;19.970;2022-07-12T05:01:11;2.13;;;1.63;;
21084;SDS011;34247;50.064;19.970;2022-07-12T05:02:16;1.35;;;1.25;;
21084;SDS011;34247;50.064;19.970;2022-07-12T05:03:19;1.70;;;1.50;;
21084;SDS011;34247;50.064;19.970;2022-07-12T05:04:23;2.17;;;1.05;;
21084;SDS011;34247;50.064;19.970;2022-07-12T05:05:27;1.48;;;1.27;;
21084;SDS011;34247;50.064;19.970;2022-07-12T05:06:31;3.45;;;1.35;;
21084;SDS011;34247;50.064;19.970;2022-07-12T05:07:36;1.77;;;1.52;;
21084;SDS011;34247;50.064;19.970;2022-07-12T05:08:45;4.82;;;1.30;;
21084;SDS011;34247;50.064;19.970;2022-07-12T05:09:49;1.80;;;1.35;;
21084;SDS011;34247;50.064;19.970;2022-07-12T05:10:54;2.95;;;1.50;;
21084;SDS011;34247;50.064;19.970;2022-07-12T05:11:58;1.27;;;1.17;;
21084;SDS011;34247;50.064;19.970;2022-07-12T05:13:02;1.63;;;1.30;;
21084;SDS011;34247;50.064;19.970;2022-07-12T05:14:06;2.00;;;1.60;;
21084;SDS011;34247;50.064;19.970;2022-07-12T05:15:10;1.83;;;1.30;;
21084;SDS011;34247;50.064;19.970;2022-07-12T05:16:14;2.63;;;1.38;;
21084;SDS011;34247;50.064;19.970;2022-07-12T05:17:18;1.35;;;1.10;;
21084;SDS011;34247;50.064;19.970;2022-07-12T05:18:22;1.10;;;1.00;;
21084;SDS011;34247;50.064;19.970;2022-07-12T05:19:26;3.78;;;1.10;;
21084;SDS011;34247;50.064;19.970;2022-07-12T05:20:30;1.00;;;0.90;;
21084;SDS011;34247;50.064;19.970;2022-07-12T05:21:34;4.95;;;1.10;;
21084;SDS011;34247;50.064;19.970;2022-07-12T05:22:38;3.05;;;1.55;;
21084;SDS011;34247;50.064;19.970;2022-07-12T05:23:44;4.22;;;1.98;;
21084;SDS011;34247;50.064;19.970;2022-07-12T05:24:47;2.55;;;1.45;;
21084;SDS011;34247;50.064;19.970;2022-07-12T05:25:51;2.35;;;1.77;;
21084;SDS011;34247;50.064;19.970;2022-07-12T05:26:55;3.95;;;1.65;;
21084;SDS011;34247;50.064;19.970;2022-07-12T05:27:59;5.88;;;1.45;;
21084;SDS011;34247;50.064;19.970;2022-07-12T05:29:03;3.60;;;1.38;;
21084;SDS011;34247;50.064;19.970;2022-07-12T05:30:07;4.57;;;1.63;;
21084;SDS011;34247;50.064;19.970;2022-07-12T05:31:12;3.75;;;2.00;;
21084;SDS011;34247;50.064;19.970;2022-07-12T05:32:16;1.83;;;1.58;;
21084;SDS011;34247;50.064;19.970;2022-07-12T05:33:20;3.00;;;1.70;;
21084;SDS011;34247;50.064;19.970;2022-07-12T05:34:23;1.75;;;1.48;;
21084;SDS011;34247;50.064;19.970;2022-07-12T05:35:28;1.33;;;1.10;;
21084;SDS011;34247;50.064;19.970;2022-07-12T05:36:32;3.75;;;1.58;;
21084;SDS011;34247;50.064;19.970;2022-07-12T05:37:35;1.48;;;1.33;;
21084;SDS011;34247;50.064;19.970;2022-07-12T05:38:39;1.25;;;1.15;;
21084;SDS011;34247;50.064;19.970;2022-07-12T05:39:43;1.80;;;1.23;;
21084;SDS011;34247;50.064;19.970;2022-07-12T05:40:47;2.30;;;1.50;;
21084;SDS011;34247;50.064;19.970;2022-07-12T05:41:51;4.13;;;1.65;;
21084;SDS011;34247;50.064;19.970;2022-07-12T05:42:55;2.83;;;1.48;;
21084;SDS011;34247;50.064;19.970;2022-07-12T05:43:59;1.55;;;1.27;;
21084;SDS011;34247;50.064;19.970;2022-07-12T05:45:03;5.45;;;1.58;;
21084;SDS011;34247;50.064;19.970;2022-07-12T05:46:09;1.90;;;1.10;;
21084;SDS011;34247;50.064;19.970;2022-07-12T05:47:13;6.35;;;1.13;;
21084;SDS011;34247;50.064;19.970;2022-07-12T05:48:17;6.57;;;1.40;;
21084;SDS011;34247;50.064;19.970;2022-07-12T05:49:21;4.20;;;1.30;;
21084;SDS011;34247;50.064;19.970;2022-07-12T05:50:25;1.27;;;1.08;;
21084;SDS011;34247;50.064;19.970;2022-07-12T05:51:29;2.30;;;1.08;;
21084;SDS011;34247;50.064;19.970;2022-07-12T05:52:51;0.80;;;0.80;;
21084;SDS011;34247;50.064;19.970;2022-07-12T05:54:13;1.20;;;1.10;;
21084;SDS011;34247;50.064;19.970;2022-07-12T05:55:17;1.23;;;0.98;;
21084;SDS011;34247;50.064;19.970;2022-07-12T05:56:21;1.17;;;1.08;;
21084;SDS011;34247;50.064;19.970;2022-07-12T05:57:25;1.25;;;0.90;;
21084;SDS011;34247;50.064;19.970;2022-07-12T05:58:29;4.65;;;1.23;;
21084;SDS011;34247;50.064;19.970;2022-07-12T05:59:39;0.90;;;0.90;;
21084;SDS011;34247;50.064;19.970;2022-07-12T06:00:43;3.20;;;0.95;;
21084;SDS011;34247;50.064;19.970;2022-07-12T06:01:47;0.75;;;0.75;;
21084;SDS011;34247;50.064;19.970;2022-07-12T06:02:51;1.13;;;0.90;;
21084;SDS011;34247;50.064;19.970;2022-07-12T06:03:55;11.80;;;1.08;;
21084;SDS011;34247;50.064;19.970;2022-07-12T06:04:59;1.83;;;0.90;;
21084;SDS011;34247;50.064;19.970;2022-07-12T06:06:03;2.53;;;1.00;;
21084;SDS011;34247;50.064;19.970;2022-07-12T06:07:07;1.92;;;0.95;;
21084;SDS011;34247;50.064;19.970;2022-07-12T06:08:11;2.00;;;1.15;;
21084;SDS011;34247;50.064;19.970;2022-07-12T06:09:15;4.40;;;1.02;;
21084;SDS011;34247;50.064;19.970;2022-07-12T06:10:19;2.38;;;1.40;;
21084;SDS011;34247;50.064;19.970;2022-07-12T06:11:23;1.55;;;1.08;;
21084;SDS011;34247;50.064;19.970;2022-07-12T06:12:27;2.03;;;1.23;;
21084;SDS011;34247;50.064;19.970;2022-07-12T06:13:31;2.40;;;1.52;;
21084;SDS011;34247;50.064;19.970;2022-07-12T06:14:35;3.47;;;1.17;;
21084;SDS011;34247;50.064;19.970;2022-07-12T06:15:40;1.27;;;0.98;;
21084;SDS011;34247;50.064;19.970;2022-07-12T06:16:44;3.22;;;1.20;;
21084;SDS011;34247;50.064;19.970;2022-07-12T06:17:47;1.25;;;1.15;;
21084;SDS011;34247;50.064;19.970;2022-07-12T06:18:51;4.25;;;1.55;;
21084;SDS011;34247;50.064;19.970;2022-07-12T06:19:55;0.95;;;0.80;;
21084;SDS011;34247;50.064;19.970;2022-07-12T06:20:59;2.42;;;1.80;;
21084;SDS011;34247;50.064;19.970;2022-07-12T06:22:03;1.13;;;1.08;;
21084;SDS011;34247;50.064;19.970;2022-07-12T06:23:07;1.60;;;0.98;;
21084;SDS011;34247;50.064;19.970;2022-07-12T06:24:11;1.80;;;1.15;;